createdAt,value
2022-09-15T00:02:43.560Z,17.52
2022-09-15T00:05:45.775Z,17.29
2022-09-15T00:08:47.913Z,17.42
2022-09-15T00:11:49.994Z,17.45
2022-09-15T00:14:51.703Z,17.34
2022-09-15T00:17:53.784Z,17.34
2022-09-15T00:20:55.666Z,17.40
2022-09-15T00:23:59.039Z,17.46
2022-09-15T00:27:01.002Z,17.45
2022-09-15T00:30:03.642Z,17.37
2022-09-15T00:33:06.095Z,17.39
2022-09-15T00:36:14.169Z,17.39
2022-09-15T00:39:15.944Z,17.37
2022-09-15T00:42:21.997Z,17.45
2022-09-15T00:45:23.930Z,17.36
2022-09-15T00:48:25.964Z,17.41
2022-09-15T00:51:36.200Z,17.42
2022-09-15T00:54:41.109Z,17.43
2022-09-15T00:57:56.591Z,17.45
2022-09-15T01:01:01.053Z,17.42
2022-09-15T01:04:03.118Z,17.40
2022-09-15T01:07:06.797Z,17.39
2022-09-15T01:10:14.957Z,17.39
2022-09-15T01:13:16.907Z,17.12
2022-09-15T01:20:31.166Z,16.84
2022-09-15T01:24:12.388Z,16.76
2022-09-15T01:27:38.116Z,16.68
2022-09-15T01:30:38.304Z,16.87
2022-09-15T01:33:48.303Z,16.99
2022-09-15T01:36:57.404Z,16.90
2022-09-15T01:40:00.687Z,16.99
2022-09-15T01:43:03.963Z,17.12
2022-09-15T01:46:06.228Z,16.92
2022-09-15T01:49:09.924Z,16.90
2022-09-15T01:52:12.040Z,17.05
2022-09-15T01:55:23.774Z,17.15
2022-09-15T01:58:25.811Z,17.25
2022-09-15T02:01:50.377Z,17.24
2022-09-15T02:05:25.605Z,17.06
2022-09-15T02:08:43.186Z,16.99
2022-09-15T02:12:21.379Z,17.04
2022-09-15T02:15:37.319Z,17.18
2022-09-15T02:18:45.632Z,17.05
2022-09-15T02:21:53.368Z,16.92
2022-09-15T02:25:03.015Z,16.90
2022-09-15T02:28:07.754Z,16.95
2022-09-15T02:31:12.246Z,17.11
2022-09-15T02:34:21.192Z,17.21
2022-09-15T02:37:23.654Z,17.26
2022-09-15T02:40:26.611Z,17.29
2022-09-15T02:43:29.679Z,17.37
2022-09-15T02:46:31.800Z,17.45
2022-09-15T02:49:34.120Z,17.42
2022-09-15T02:52:35.961Z,17.25
2022-09-15T02:55:37.701Z,17.30
2022-09-15T02:58:39.514Z,17.24
2022-09-15T03:01:41.281Z,17.18
2022-09-15T03:04:43.674Z,17.11
2022-09-15T03:07:45.738Z,16.98
2022-09-15T03:10:47.788Z,16.90
2022-09-15T03:13:54.055Z,16.98
2022-09-15T03:16:55.863Z,16.80
2022-09-15T03:19:57.702Z,16.76
2022-09-15T03:22:59.391Z,17.01
2022-09-15T03:26:02.100Z,17.12
2022-09-15T03:29:04.595Z,17.20
2022-09-15T03:32:06.372Z,16.98
2022-09-15T03:35:09.058Z,17.04
2022-09-15T03:38:10.746Z,17.16
2022-09-15T03:41:13.955Z,16.94
2022-09-15T03:44:16.297Z,16.80
2022-09-15T03:47:18.103Z,16.69
2022-09-15T03:50:20.257Z,16.87
2022-09-15T03:53:22.321Z,16.96
2022-09-15T03:56:26.378Z,17.06
2022-09-15T03:59:28.229Z,17.14
2022-09-15T04:02:29.921Z,17.09
2022-09-15T04:05:31.950Z,17.08
2022-09-15T04:08:33.812Z,17.15
2022-09-15T04:11:35.871Z,17.17
2022-09-15T04:14:38.006Z,17.04
2022-09-15T04:17:39.701Z,16.98
2022-09-15T04:20:41.699Z,16.94
2022-09-15T04:23:44.458Z,16.89
2022-09-15T04:26:46.325Z,16.91
2022-09-15T04:29:52.252Z,16.84
2022-09-15T04:32:54.067Z,16.93
2022-09-15T04:36:00.570Z,16.99
2022-09-15T04:39:02.815Z,17.06
2022-09-15T04:42:06.328Z,17.12
2022-09-15T04:45:08.775Z,17.25
2022-09-15T04:48:11.279Z,17.23
2022-09-15T04:51:21.013Z,17.25
2022-09-15T04:54:23.676Z,17.32
2022-09-15T04:57:25.470Z,17.40
2022-09-15T05:00:27.963Z,17.37
2022-09-15T05:03:30.105Z,17.40
2022-09-15T05:06:32.554Z,17.58
2022-09-15T05:09:34.562Z,17.35
2022-09-15T05:12:36.427Z,17.53
2022-09-15T05:15:38.568Z,17.44
2022-09-15T05:18:42.175Z,17.46
2022-09-15T05:21:44.638Z,17.62
2022-09-15T05:24:46.840Z,17.54
2022-09-15T05:27:48.566Z,17.31
2022-09-15T05:30:54.748Z,17.19
2022-09-15T05:33:56.974Z,16.92
2022-09-15T05:36:59.885Z,17.18
2022-09-15T05:40:07.660Z,17.24
2022-09-15T05:43:14.234Z,17.03
2022-09-15T05:46:18.316Z,16.93
2022-09-15T05:49:20.916Z,16.90
2022-09-15T05:52:23.181Z,17.00
2022-09-15T05:55:25.429Z,17.09
2022-09-15T05:58:27.858Z,17.05
2022-09-15T06:01:31.384Z,17.20
2022-09-15T06:04:34.532Z,17.35
2022-09-15T06:07:36.489Z,17.49
2022-09-15T06:10:39.008Z,17.63
2022-09-15T06:13:41.266Z,17.73
2022-09-15T06:16:43.314Z,17.75
2022-09-15T06:19:45.760Z,17.72
2022-09-15T06:22:47.948Z,17.79
2022-09-15T06:25:50.012Z,17.91
2022-09-15T06:28:54.058Z,18.08
2022-09-15T06:31:57.370Z,18.09
2022-09-15T06:38:19.704Z,17.73
2022-09-15T06:41:22.408Z,17.70
2022-09-15T06:44:25.283Z,17.52
2022-09-15T06:47:34.124Z,17.76
2022-09-15T06:50:36.639Z,17.85
2022-09-15T06:53:39.748Z,17.70
2022-09-15T06:56:42.525Z,17.87
2022-09-15T06:59:44.973Z,18.06
2022-09-15T07:02:50.766Z,18.12
2022-09-15T07:05:53.671Z,18.29
2022-09-15T07:08:57.304Z,18.33
2022-09-15T07:11:59.523Z,18.39
2022-09-15T07:15:01.765Z,18.37
2022-09-15T07:18:04.674Z,18.49
2022-09-15T07:21:10.304Z,18.48
2022-09-15T07:24:13.256Z,18.55
2022-09-15T07:27:16.611Z,18.81
2022-09-15T07:30:20.424Z,18.98
2022-09-15T07:33:24.399Z,19.12
2022-09-15T07:36:28.899Z,19.24
2022-09-15T07:39:33.436Z,19.37
2022-09-15T07:42:35.710Z,19.47
2022-09-15T07:45:38.907Z,19.64
2022-09-15T07:48:41.946Z,19.60
2022-09-15T07:51:44.160Z,19.74
2022-09-15T07:54:46.356Z,19.74
2022-09-15T07:57:48.908Z,19.92
2022-09-15T08:00:51.876Z,19.97
2022-09-15T08:03:54.600Z,20.07
2022-09-15T08:06:56.993Z,20.17
2022-09-15T08:09:59.736Z,20.13
2022-09-15T08:13:02.204Z,20.11
2022-09-15T08:16:13.272Z,20.03
2022-09-15T08:19:15.612Z,20.09
2022-09-15T08:22:17.635Z,20.18
2022-09-15T08:25:19.862Z,20.13
2022-09-15T08:28:22.249Z,20.13
2022-09-15T08:31:25.260Z,20.10
2022-09-15T08:34:28.623Z,20.06
2022-09-15T08:37:31.731Z,20.07
2022-09-15T08:40:36.842Z,20.12
2022-09-15T08:43:44.678Z,20.38
2022-09-15T08:46:47.422Z,20.55
2022-09-15T08:50:04.699Z,20.42
2022-09-15T08:53:13.250Z,20.45
2022-09-15T08:56:17.952Z,20.17
2022-09-15T08:59:20.946Z,20.29
2022-09-15T09:02:39.807Z,20.31
2022-09-15T09:05:50.808Z,20.54
2022-09-15T09:09:17.920Z,20.67
2022-09-15T09:12:27.197Z,20.73
2022-09-15T09:15:48.147Z,20.87
2022-09-15T09:19:00.010Z,20.73
2022-09-15T09:22:10.361Z,20.83
2022-09-15T09:25:26.843Z,20.55
2022-09-15T09:28:36.585Z,20.51
2022-09-15T09:31:40.827Z,20.54
2022-09-15T09:35:01.063Z,20.54
2022-09-15T09:38:03.810Z,20.41
2022-09-15T09:41:26.359Z,20.22
2022-09-15T09:44:32.223Z,20.14
2022-09-15T09:47:35.475Z,20.09
2022-09-15T09:50:43.780Z,20.07
2022-09-15T09:53:54.229Z,20.12
2022-09-15T09:57:23.536Z,20.32
2022-09-15T10:00:32.725Z,20.75
2022-09-15T10:03:34.859Z,21.13
2022-09-15T10:06:37.098Z,21.55
2022-09-15T10:09:42.385Z,21.35
2022-09-15T10:13:02.868Z,21.53
2022-09-15T10:16:06.758Z,21.51
2022-09-15T10:19:14.332Z,21.76
2022-09-15T10:22:27.648Z,21.96
2022-09-15T10:25:55.028Z,22.20
2022-09-15T10:29:14.537Z,22.24
2022-09-15T10:32:27.116Z,22.64
2022-09-15T10:35:32.855Z,22.50
2022-09-15T10:38:46.785Z,22.96
2022-09-15T10:42:11.884Z,23.28
2022-09-15T10:45:14.958Z,23.26
2022-09-15T10:48:23.897Z,23.30
2022-09-15T10:51:47.477Z,23.35
2022-09-15T10:55:08.492Z,23.89
2022-09-15T10:58:24.927Z,23.50
2022-09-15T11:01:46.475Z,23.46
2022-09-15T11:05:09.363Z,23.75
2022-09-15T11:08:33.621Z,22.93
2022-09-15T11:11:45.052Z,23.05
2022-09-15T11:15:16.268Z,22.96
2022-09-15T11:18:45.493Z,23.87
2022-09-15T11:21:53.091Z,24.42
2022-09-15T11:25:22.316Z,24.36
2022-09-15T11:28:34.957Z,24.08
2022-09-15T11:31:42.239Z,24.32
2022-09-15T11:34:54.717Z,23.89
2022-09-15T11:38:27.337Z,24.28
2022-09-15T11:41:38.849Z,24.85
2022-09-15T11:44:43.888Z,25.22
2022-09-15T11:47:51.279Z,24.83
2022-09-15T11:50:56.161Z,24.52
2022-09-15T11:54:06.453Z,24.46
2022-09-15T11:57:17.100Z,24.60
2022-09-15T12:00:24.251Z,25.28
2022-09-15T12:03:48.642Z,24.70
2022-09-15T12:07:13.705Z,24.88
2022-09-15T12:10:25.643Z,24.68
2022-09-15T12:13:27.942Z,24.47
2022-09-15T12:16:31.119Z,24.42
2022-09-15T12:19:36.021Z,24.49
2022-09-15T12:22:53.125Z,24.26
2022-09-15T12:26:14.916Z,24.21
2022-09-15T12:29:41.273Z,24.30
2022-09-15T12:32:44.893Z,24.60
2022-09-15T12:35:47.742Z,24.54
2022-09-15T12:38:49.804Z,24.43
2022-09-15T12:41:58.114Z,24.09
2022-09-15T12:45:00.184Z,24.09
2022-09-15T12:48:14.034Z,24.01
2022-09-15T12:51:24.607Z,23.80
2022-09-15T12:54:36.893Z,23.88
2022-09-15T12:57:39.157Z,23.73
2022-09-15T13:01:06.836Z,23.72
2022-09-15T13:04:05.246Z,23.58
2022-09-15T13:07:37.392Z,23.44
2022-09-15T13:10:43.181Z,23.59
2022-09-15T13:14:03.532Z,23.33
2022-09-15T13:17:16.971Z,23.62
2022-09-15T13:20:30.115Z,23.74
2022-09-15T13:23:37.297Z,23.28
2022-09-15T13:26:40.697Z,23.05
2022-09-15T13:29:49.415Z,22.87
2022-09-15T13:33:12.709Z,22.52
2022-09-15T13:40:47.026Z,22.10
2022-09-15T13:44:14.190Z,22.59
2022-09-15T13:47:31.491Z,22.29
2022-09-15T13:50:56.644Z,22.50
2022-09-15T13:54:03.427Z,22.46
2022-09-15T13:57:05.949Z,22.47
2022-09-15T14:00:20.900Z,22.44
2022-09-15T14:03:45.683Z,22.53
2022-09-15T14:06:49.759Z,21.86
2022-09-15T14:09:52.145Z,22.02
2022-09-15T14:12:54.739Z,22.14
2022-09-15T14:16:02.922Z,21.84
2022-09-15T14:19:23.322Z,21.62
2022-09-15T14:22:26.936Z,21.71
2022-09-15T14:25:29.858Z,21.41
2022-09-15T14:28:32.989Z,21.65
2022-09-15T14:31:41.104Z,21.39
2022-09-15T14:34:44.910Z,21.32
2022-09-15T14:37:57.257Z,21.11
2022-09-15T14:41:02.608Z,21.15
2022-09-15T14:48:08.700Z,21.42
2022-09-15T14:51:18.518Z,21.12
2022-09-15T14:54:34.180Z,21.37
2022-09-15T14:57:38.078Z,21.35
2022-09-15T15:00:56.943Z,21.20
2022-09-15T15:04:10.486Z,21.13
2022-09-15T15:07:20.201Z,21.28
2022-09-15T15:10:33.461Z,21.44
2022-09-15T15:13:41.134Z,21.38
2022-09-15T15:17:24.087Z,20.82
2022-09-15T15:20:30.535Z,20.98
2022-09-15T15:23:33.218Z,20.99
2022-09-15T15:26:38.693Z,20.77
2022-09-15T15:29:48.087Z,20.52
2022-09-15T15:32:50.864Z,20.49
2022-09-15T15:36:08.702Z,20.38
2022-09-15T15:39:25.317Z,20.26
2022-09-15T15:42:29.170Z,20.37
2022-09-15T15:45:34.832Z,20.34
2022-09-15T15:48:38.554Z,20.25
2022-09-15T15:51:41.858Z,20.24
2022-09-15T15:54:44.830Z,20.05
2022-09-15T15:57:56.202Z,19.96
2022-09-15T16:00:59.540Z,19.98
2022-09-15T16:04:03.130Z,19.96
2022-09-15T16:07:06.828Z,19.85
2022-09-15T16:10:15.309Z,19.86
2022-09-15T16:13:20.791Z,19.33
2022-09-15T16:16:25.918Z,19.25
2022-09-15T16:19:28.617Z,19.25
2022-09-15T16:22:30.873Z,19.21
2022-09-15T16:25:49.599Z,19.01
2022-09-15T16:28:52.662Z,18.85
2022-09-15T16:31:56.341Z,18.60
2022-09-15T16:34:58.319Z,18.55
2022-09-15T16:38:00.778Z,18.42
2022-09-15T16:41:04.876Z,18.22
2022-09-15T16:44:18.513Z,18.13
2022-09-15T16:47:22.172Z,18.00
2022-09-15T16:50:25.889Z,18.02
2022-09-15T16:53:30.793Z,17.99
2022-09-15T16:56:33.294Z,17.96
2022-09-15T16:59:36.380Z,18.12
2022-09-15T17:02:39.639Z,18.10
2022-09-15T17:05:49.698Z,18.08
2022-09-15T17:08:52.938Z,17.94
2022-09-15T17:11:57.968Z,17.77
2022-09-15T17:15:00.581Z,17.61
2022-09-15T17:18:04.400Z,17.37
2022-09-15T17:21:07.757Z,17.31
2022-09-15T17:24:11.318Z,17.42
2022-09-15T17:27:14.255Z,17.43
2022-09-15T17:30:19.463Z,17.42
2022-09-15T17:33:21.875Z,17.22
2022-09-15T17:36:24.453Z,17.07
2022-09-15T17:39:28.653Z,16.93
2022-09-15T17:42:31.524Z,16.90
2022-09-15T17:45:36.033Z,16.76
2022-09-15T17:48:39.315Z,16.72
2022-09-15T17:51:42.343Z,16.68
2022-09-15T17:54:44.719Z,16.68
2022-09-15T17:57:49.621Z,16.65
2022-09-15T18:00:53.256Z,16.63
2022-09-15T18:03:55.941Z,16.72
2022-09-15T18:06:58.178Z,16.75
2022-09-15T18:10:02.095Z,16.76
2022-09-15T18:13:06.617Z,16.79
2022-09-15T18:16:13.071Z,16.75
2022-09-15T18:19:15.758Z,16.73
2022-09-15T18:22:19.789Z,16.49
2022-09-15T18:25:28.763Z,16.26
2022-09-15T18:28:31.406Z,16.19
2022-09-15T18:31:33.803Z,16.17
2022-09-15T18:34:36.964Z,16.13
2022-09-15T18:37:39.408Z,16.04
2022-09-15T18:40:48.502Z,16.02
2022-09-15T18:43:52.017Z,15.96
2022-09-15T18:46:54.675Z,15.95
2022-09-15T18:49:57.271Z,15.94
2022-09-15T18:53:00.937Z,15.88
2022-09-15T18:56:15.323Z,16.03
2022-09-15T18:59:17.946Z,15.95
2022-09-15T19:02:21.423Z,15.99
2022-09-15T19:05:24.269Z,16.13
2022-09-15T19:08:30.468Z,16.10
2022-09-15T19:11:33.176Z,16.12
2022-09-15T19:14:35.915Z,16.12
2022-09-15T19:17:38.627Z,16.06
2022-09-15T19:20:41.301Z,16.01
2022-09-15T19:23:43.910Z,15.79
2022-09-15T19:26:47.735Z,15.82
2022-09-15T19:29:50.766Z,15.85
2022-09-15T19:32:53.226Z,15.63
2022-09-15T19:36:10.577Z,15.60
2022-09-15T19:39:15.710Z,15.62
2022-09-15T19:42:18.628Z,15.62
2022-09-15T19:45:21.321Z,15.49
2022-09-15T19:48:23.248Z,15.52
2022-09-15T19:51:26.248Z,15.57
2022-09-15T19:54:31.192Z,15.63
2022-09-15T19:57:33.865Z,15.60
2022-09-15T20:00:42.715Z,15.65
2022-09-15T20:07:04.883Z,15.57
2022-09-15T20:10:07.614Z,15.55
2022-09-15T20:13:09.547Z,15.60
2022-09-15T20:16:20.038Z,15.61
2022-09-15T20:19:22.909Z,15.58
2022-09-15T20:22:25.526Z,15.54
2022-09-15T20:25:27.925Z,15.63
2022-09-15T20:28:35.483Z,15.73
2022-09-15T20:31:38.811Z,15.68
2022-09-15T20:34:41.061Z,15.75
2022-09-15T20:37:43.025Z,15.75
2022-09-15T20:40:45.415Z,15.76
2022-09-15T20:43:47.211Z,15.80
2022-09-15T20:46:49.660Z,15.74
2022-09-15T20:49:52.182Z,15.64
2022-09-15T20:52:54.151Z,15.70
2022-09-15T20:55:56.945Z,15.78
2022-09-15T20:59:00.005Z,15.71
2022-09-15T21:02:05.000Z,15.62
2022-09-15T21:05:07.152Z,15.67
2022-09-15T21:08:11.116Z,15.57
2022-09-15T21:11:18.091Z,15.49
2022-09-15T21:14:20.406Z,15.50
2022-09-15T21:17:23.223Z,15.58
2022-09-15T21:20:25.913Z,15.56
2022-09-15T21:23:33.630Z,15.35
2022-09-15T21:27:00.762Z,15.25
2022-09-15T21:30:02.897Z,15.26
2022-09-15T21:33:05.015Z,15.16
2022-09-15T21:36:12.894Z,15.08
2022-09-15T21:39:14.938Z,15.12
2022-09-15T21:42:17.851Z,15.10
2022-09-15T21:45:19.953Z,15.19
2022-09-15T21:48:21.765Z,15.11
2022-09-15T21:51:25.251Z,14.98
2022-09-15T21:54:27.183Z,14.94
2022-09-15T21:57:29.586Z,14.90
2022-09-15T22:00:32.134Z,14.85
2022-09-15T22:03:34.008Z,14.82
2022-09-15T22:06:40.453Z,14.82
2022-09-15T22:09:43.059Z,14.83
2022-09-15T22:12:45.729Z,14.89
2022-09-15T22:15:47.441Z,14.96
2022-09-15T22:18:50.051Z,15.08
2022-09-15T22:21:52.169Z,15.08
2022-09-15T22:24:53.980Z,15.14
2022-09-15T22:27:56.224Z,15.11
2022-09-15T22:31:02.334Z,15.18
2022-09-15T22:34:04.483Z,15.20
2022-09-15T22:37:06.313Z,15.17
2022-09-15T22:40:08.873Z,15.15
2022-09-15T22:43:10.727Z,15.16
2022-09-15T22:46:12.781Z,15.12
2022-09-15T22:49:15.657Z,15.14
2022-09-15T22:52:17.432Z,15.07
2022-09-15T22:55:19.535Z,15.12
2022-09-15T22:58:21.649Z,14.97
2022-09-15T23:01:26.931Z,14.97
2022-09-15T23:04:29.136Z,14.96
2022-09-15T23:07:31.139Z,15.00
2022-09-15T23:10:34.225Z,15.06
2022-09-15T23:13:36.644Z,15.05
2022-09-15T23:16:38.411Z,15.09
2022-09-15T23:19:40.881Z,15.07
2022-09-15T23:22:42.677Z,15.03
2022-09-15T23:25:44.814Z,15.00
2022-09-15T23:28:47.405Z,14.99
2022-09-15T23:31:49.275Z,14.96
2022-09-15T23:34:52.817Z,14.97
2022-09-15T23:37:54.699Z,14.90
2022-09-15T23:40:57.187Z,14.77
2022-09-15T23:43:59.987Z,14.72
2022-09-15T23:47:01.898Z,14.71
2022-09-15T23:50:04.503Z,14.56
2022-09-15T23:53:07.063Z,14.52
2022-09-15T23:56:09.611Z,14.62
2022-09-15T23:59:11.499Z,14.71
